Time;durP1;ratioP1;P1;durP2;ratioP2;P2;SDS_P1;SDS_P2;PMS_P1;PMS_P2;Temp;Humidity;BMP_temperature;BMP_pressure;BME280_temperature;BME280_humidity;BME280_pressure;Samples;Min_cycle;Max_cycle;Signal;HPM_P1;HPM_P2
2021/09/30 00:01:33;;;;;;;2.90;1.23;;;;;;;11.43;86.58;97353.25;4975190;28;20260;-54
2021/09/30 00:03:58;;;;;;;1.80;1.53;;;;;;;11.52;86.55;97350.41;4974424;28;20265;-58
2021/09/30 00:06:23;;;;;;;1.60;1.10;;;;;;;11.35;86.62;97350.03;4974824;28;20279;-54
2021/09/30 00:08:49;;;;;;;1.57;1.40;;;;;;;11.56;86.62;97352.41;4973497;28;20174;-58
2021/09/30 00:11:19;;;;;;;3.50;1.33;;;;;;;11.75;85.43;97351.56;4974748;28;20178;-55
2021/09/30 00:13:56;;;;;;;2.00;1.20;;;;;;;11.90;84.51;97361.84;4974602;28;20181;-54
2021/09/30 00:16:33;;;;;;;1.03;0.87;;;;;;;11.98;84.35;97364.22;4974753;28;20433;-54
2021/09/30 00:41:17;;;;;;;2.03;1.00;;;;;;;12.62;80.96;97372.00;4974508;28;20404;-58
2021/09/30 00:46:07;;;;;;;2.20;1.00;;;;;;;12.65;79.96;97369.72;4974332;28;20864;-60
2021/09/30 00:49:00;;;;;;;1.20;1.10;;;;;;;12.61;79.63;97370.38;4974495;28;20466;-55
2021/09/30 00:51:47;;;;;;;2.07;1.13;;;;;;;12.64;79.39;97373.41;4974631;28;20464;-54
2021/09/30 01:33:57;;;;;;;5.37;1.80;;;;;;;10.29;90.65;97397.53;4977143;28;20427;-58
2021/09/30 02:20:28;;;;;;;1.90;1.23;;;;;;;10.10;91.47;97399.06;4976850;28;20407;-54
2021/09/30 02:25:51;;;;;;;2.77;1.17;;;;;;;10.08;92.14;97401.06;4976683;28;20505;-58
2021/09/30 02:58:37;;;;;;;2.40;1.90;;;;;;;9.82;92.18;97410.63;4976413;28;20404;-58
2021/09/30 03:01:06;;;;;;;3.53;1.23;;;;;;;9.87;91.70;97410.84;4975878;28;20912;-58
2021/09/30 03:03:37;;;;;;;3.10;1.60;;;;;;;9.97;91.93;97404.25;4975569;28;20432;-58
2021/09/30 03:06:05;;;;;;;1.80;1.20;;;;;;;9.81;91.93;97403.75;4975698;28;20943;-54
2021/09/30 03:08:35;;;;;;;4.70;1.80;;;;;;;9.82;92.15;97402.75;4975837;28;20543;-59
2021/09/30 03:11:02;;;;;;;1.80;1.70;;;;;;;9.94;91.58;97399.38;4975961;28;20424;-54
2021/09/30 03:13:29;;;;;;;2.50;1.50;;;;;;;9.81;91.67;97401.94;4958115;28;20422;-58
2021/09/30 03:15:59;;;;;;;1.40;1.30;;;;;;;10.06;90.51;97404.88;4975612;28;20457;-54
2021/09/30 03:19:16;;;;;;;4.73;1.47;;;;;;;10.06;90.41;97408.31;4975714;28;20492;-54
2021/09/30 03:23:42;;;;;;;2.20;1.60;;;;;;;9.85;91.07;97413.69;4975260;28;20922;-54
2021/09/30 03:26:08;;;;;;;2.07;1.87;;;;;;;9.97;90.83;97417.38;4975350;28;20436;-58
2021/09/30 03:28:35;;;;;;;4.97;1.60;;;;;;;9.97;90.19;97419.16;4974117;28;20455;-54
2021/09/30 03:31:04;;;;;;;1.60;1.50;;;;;;;9.78;91.43;97422.53;4975247;28;20467;-54
2021/09/30 03:33:30;;;;;;;2.30;1.93;;;;;;;9.69;91.67;97424.50;4975180;28;20445;-58
2021/09/30 03:35:55;;;;;;;2.40;2.07;;;;;;;9.65;91.40;97425.88;4975409;28;20967;-54
2021/09/30 03:38:22;;;;;;;2.37;1.70;;;;;;;9.61;92.02;97427.28;4975177;28;20426;-54
2021/09/30 03:40:48;;;;;;;1.83;1.60;;;;;;;9.85;91.04;97415.50;4975387;28;20621;-58
2021/09/30 03:43:13;;;;;;;2.70;2.10;;;;;;;10.06;89.70;97421.44;4974930;28;20474;-58
2021/09/30 03:45:39;;;;;;;2.30;1.80;;;;;;;10.07;89.49;97422.25;4975137;28;20595;-54
2021/09/30 03:48:06;;;;;;;3.47;2.40;;;;;;;10.19;88.96;97428.59;4975180;28;20213;-58
2021/09/30 03:53:15;;;;;;;6.13;2.10;;;;;;;10.23;87.86;97425.38;4974941;28;20425;-58
2021/09/30 04:00:49;;;;;;;5.23;2.07;;;;;;;10.23;88.37;97425.38;4975364;28;20231;-58
2021/09/30 04:03:15;;;;;;;1.77;1.20;;;;;;;10.23;88.68;97429.81;4974550;28;20458;-54
2021/09/30 04:05:41;;;;;;;2.43;1.60;;;;;;;10.05;89.53;97437.41;4974737;28;20228;-54
2021/09/30 04:08:06;;;;;;;2.30;2.00;;;;;;;10.17;89.11;97439.28;4974839;28;20217;-54
2021/09/30 04:10:31;;;;;;;2.00;1.70;;;;;;;10.12;89.08;97435.63;4974835;28;20180;-54
2021/09/30 04:12:58;;;;;;;3.80;1.83;;;;;;;10.01;89.28;97436.97;4974551;28;20173;-58
2021/09/30 04:15:23;;;;;;;1.73;1.47;;;;;;;10.00;89.03;97445.84;4974592;28;20262;-58
2021/09/30 04:17:48;;;;;;;3.40;1.43;;;;;;;10.04;88.86;97447.06;4974763;28;20448;-54
2021/09/30 04:20:16;;;;;;;2.70;1.30;;;;;;;10.01;89.11;97450.09;4974841;28;20176;-55
2021/09/30 04:22:42;;;;;;;6.63;1.80;;;;;;;10.06;88.49;97437.19;4974440;28;20643;-54
2021/09/30 04:25:08;;;;;;;5.63;1.80;;;;;;;9.86;89.91;97441.53;4974575;28;20443;-54
2021/09/30 04:27:33;;;;;;;3.70;1.63;;;;;;;9.45;91.31;97448.56;4974445;28;20458;-58
2021/09/30 04:29:59;;;;;;;3.60;1.57;;;;;;;9.48;91.53;97445.53;4974759;28;20581;-54
2021/09/30 04:32:25;;;;;;;1.70;1.60;;;;;;;9.37;92.27;97448.69;4976954;28;20184;-54
2021/09/30 04:34:50;;;;;;;2.23;1.90;;;;;;;9.44;92.48;97446.13;4978213;28;20211;-54
2021/09/30 04:37:16;;;;;;;4.40;1.70;;;;;;;9.35;92.51;97450.69;4978537;28;20217;-54
2021/09/30 04:39:41;;;;;;;2.40;1.80;;;;;;;9.38;92.50;97445.09;4978543;28;20509;-54
2021/09/30 04:42:07;;;;;;;2.80;2.20;;;;;;;9.15;93.15;97436.63;4978399;28;20282;-54
2021/09/30 04:44:32;;;;;;;2.40;2.17;;;;;;;9.32;92.92;97440.59;4978227;28;20178;-58
2021/09/30 04:46:57;;;;;;;1.43;1.33;;;;;;;9.06;94.08;97435.94;4978381;28;20236;-54
2021/09/30 04:49:23;;;;;;;2.93;2.40;;;;;;;9.14;93.46;97438.44;4978441;28;20177;-58
2021/09/30 04:51:48;;;;;;;3.23;2.00;;;;;;;9.10;93.85;97441.63;4978443;28;20659;-58
2021/09/30 04:54:13;;;;;;;5.40;2.60;;;;;;;9.20;93.63;97447.38;4977890;28;20634;-54
2021/09/30 04:56:39;;;;;;;2.33;2.00;;;;;;;9.12;93.02;97439.63;4978332;28;20553;-58
2021/09/30 04:59:04;;;;;;;2.40;1.80;;;;;;;9.15;93.27;97441.84;4978316;28;20630;-58
2021/09/30 05:01:30;;;;;;;2.80;1.50;;;;;;;9.15;92.83;97441.84;4978254;28;20183;-54
2021/09/30 05:03:55;;;;;;;2.57;1.00;;;;;;;9.20;93.78;97436.88;4977718;28;20228;-58
2021/09/30 05:06:21;;;;;;;3.90;1.23;;;;;;;9.33;92.59;97436.94;4978049;28;20218;-58
2021/09/30 05:08:49;;;;;;;3.10;1.43;;;;;;;9.51;91.83;97439.13;4978050;28;20286;-58
2021/09/30 05:11:15;;;;;;;2.33;1.50;;;;;;;9.43;91.71;97447.13;4978120;28;20183;-54
2021/09/30 05:13:42;;;;;;;3.23;1.37;;;;;;;9.67;91.33;97446.69;4977556;28;20454;-54
2021/09/30 05:16:13;;;;;;;1.80;1.13;;;;;;;9.54;91.29;97436.91;4977908;28;20585;-54
2021/09/30 05:18:45;;;;;;;3.60;1.80;;;;;;;9.63;90.58;97446.25;4977973;28;20442;-54
2021/09/30 05:21:10;;;;;;;2.90;1.50;;;;;;;9.68;90.12;97450.91;4977834;28;20415;-57
2021/09/30 05:23:36;;;;;;;1.57;1.47;;;;;;;9.73;90.41;97461.66;4977658;28;20777;-58
2021/09/30 05:26:02;;;;;;;2.90;1.30;;;;;;;9.78;89.54;97464.50;4977616;28;20225;-54
2021/09/30 05:28:27;;;;;;;2.80;1.50;;;;;;;9.96;88.76;97456.94;4977759;28;20208;-58
2021/09/30 05:30:52;;;;;;;2.07;1.30;;;;;;;9.75;89.35;97465.69;4977574;28;20422;-54
2021/09/30 05:33:20;;;;;;;1.37;1.27;;;;;;;9.85;88.66;97463.56;4977260;28;20256;-54
2021/09/30 05:35:46;;;;;;;2.70;1.53;;;;;;;9.83;89.11;97476.06;4977516;28;20201;-54
2021/09/30 05:38:12;;;;;;;3.67;1.40;;;;;;;9.82;89.28;97473.63;4977258;28;20428;-58
2021/09/30 05:40:37;;;;;;;2.00;1.03;;;;;;;9.99;88.28;97475.75;4977353;28;20477;-58
2021/09/30 05:43:04;;;;;;;1.47;1.30;;;;;;;10.03;88.32;97479.59;4976404;28;20419;-54
2021/09/30 05:45:32;;;;;;;1.83;1.30;;;;;;;10.02;87.53;97487.66;4977582;28;20209;-58
2021/09/30 05:47:57;;;;;;;1.10;1.00;;;;;;;9.91;88.21;97493.47;4977402;28;20550;-59
2021/09/30 05:50:23;;;;;;;1.93;1.60;;;;;;;9.85;88.69;97494.22;4977315;28;20504;-58
2021/09/30 05:52:49;;;;;;;2.50;1.83;;;;;;;9.86;88.99;97487.97;4976763;28;20172;-57
2021/09/30 05:55:14;;;;;;;2.97;1.53;;;;;;;9.71;89.40;97489.91;4977007;28;20435;-53
2021/09/30 05:57:41;;;;;;;2.23;1.20;;;;;;;9.57;90.28;97496.88;4977167;28;20212;-57
2021/09/30 06:00:20;;;;;;;4.97;1.53;;;;;;;9.64;90.38;97494.31;4977094;28;20171;-57
2021/09/30 06:11:36;;;;;;;3.27;1.73;;;;;;;9.46;91.62;97491.34;4994284;28;20430;-57
2021/09/30 06:14:09;;;;;;;4.83;1.90;;;;;;;9.50;91.41;97489.94;4994018;28;20847;-53
2021/09/30 06:16:44;;;;;;;4.37;1.80;;;;;;;9.63;91.26;97485.63;4981665;28;20443;-53
2021/09/30 06:19:11;;;;;;;4.13;1.70;;;;;;;9.66;91.42;97493.09;4976818;28;20409;-53
2021/09/30 06:21:36;;;;;;;3.13;1.87;;;;;;;9.56;91.78;97495.25;4976667;28;20470;-53
2021/09/30 06:24:02;;;;;;;4.80;1.50;;;;;;;9.59;91.24;97499.28;4976132;28;20409;-57
2021/09/30 06:26:28;;;;;;;2.30;1.40;;;;;;;9.74;91.38;97500.00;4976450;28;20268;-53
2021/09/30 06:28:54;;;;;;;1.73;1.10;;;;;;;9.90;90.54;97497.91;4976590;28;20212;-58
2021/09/30 06:31:19;;;;;;;4.27;1.67;;;;;;;9.89;91.27;97496.25;4976529;28;20411;-57
2021/09/30 06:33:45;;;;;;;1.83;1.37;;;;;;;10.15;90.13;97506.13;4976035;28;20414;-53
2021/09/30 06:36:10;;;;;;;5.47;1.30;;;;;;;10.30;89.55;97494.50;4976441;28;20671;-54
2021/09/30 06:38:35;;;;;;;3.30;1.60;;;;;;;10.33;88.73;97503.78;4976185;28;20184;-57
2021/09/30 06:41:01;;;;;;;1.87;1.37;;;;;;;10.41;88.79;97503.66;4976335;28;20219;-53
2021/09/30 06:43:26;;;;;;;3.77;1.30;;;;;;;10.49;88.09;97500.81;4975885;28;20176;-57
2021/09/30 06:45:52;;;;;;;3.13;1.20;;;;;;;10.45;87.84;97506.69;4976216;28;20682;-57
2021/09/30 06:48:18;;;;;;;1.37;1.23;;;;;;;10.52;87.66;97504.91;4976289;28;20193;-59
2021/09/30 06:50:44;;;;;;;1.60;1.10;;;;;;;10.49;88.09;97505.28;4976196;28;20416;-59
2021/09/30 06:53:09;;;;;;;1.80;1.37;;;;;;;10.43;87.94;97513.94;4975911;28;20177;-54
2021/09/30 06:55:34;;;;;;;2.20;1.33;;;;;;;10.54;88.10;97506.34;4974868;28;20439;-54
2021/09/30 06:58:00;;;;;;;2.40;1.27;;;;;;;10.71;87.45;97517.28;4975908;28;20212;-57
2021/09/30 07:00:27;;;;;;;4.47;1.50;;;;;;;10.63;87.54;97517.47;4974625;28;20208;-54
2021/09/30 07:02:53;;;;;;;3.57;1.30;;;;;;;10.60;87.44;97515.25;4975627;28;20636;-57
2021/09/30 07:05:19;;;;;;;3.43;1.60;;;;;;;10.47;87.83;97520.44;4975917;28;20507;-54
2021/09/30 07:07:45;;;;;;;3.17;1.60;;;;;;;10.63;87.77;97517.47;4975691;28;20197;-54
2021/09/30 07:10:10;;;;;;;3.37;1.30;;;;;;;10.60;87.93;97523.91;4975784;28;20499;-53
2021/09/30 07:12:39;;;;;;;1.80;1.30;;;;;;;10.85;87.38;97524.22;4975471;28;20181;-56
2021/09/30 07:15:05;;;;;;;4.20;1.20;;;;;;;10.98;86.49;97519.78;4975696;28;20193;-54
2021/09/30 07:17:31;;;;;;;3.33;1.37;;;;;;;10.95;86.23;97533.34;4975829;28;20840;-57
2021/09/30 07:19:58;;;;;;;2.53;1.53;;;;;;;11.08;85.27;97530.75;4975595;28;20414;-58
2021/09/30 07:22:24;;;;;;;2.07;1.37;;;;;;;11.27;85.43;97523.88;4975708;28;20185;-54
2021/09/30 07:24:50;;;;;;;2.53;1.43;;;;;;;11.26;85.24;97530.97;4975134;28;20532;-54
2021/09/30 07:27:15;;;;;;;4.80;1.43;;;;;;;11.39;85.22;97538.06;4975431;28;20536;-57
2021/09/30 07:29:40;;;;;;;5.40;1.50;;;;;;;11.57;84.73;97530.38;4975487;28;20201;-54
2021/09/30 07:32:06;;;;;;;1.27;1.17;;;;;;;11.65;82.92;97532.81;4975460;28;20174;-58
2021/09/30 07:34:33;;;;;;;3.90;1.63;;;;;;;11.65;83.52;97534.66;4974879;28;20181;-54
2021/09/30 07:36:59;;;;;;;2.07;1.50;;;;;;;11.71;82.91;97531.22;4975092;28;20182;-54
2021/09/30 07:39:26;;;;;;;3.20;1.53;;;;;;;11.66;82.35;97536.28;4975477;28;20442;-54
2021/09/30 07:41:52;;;;;;;2.07;1.23;;;;;;;11.69;82.06;97527.97;4975247;28;20476;-54
2021/09/30 07:44:18;;;;;;;2.40;1.40;;;;;;;11.76;81.99;97534.06;4974963;28;20178;-54
2021/09/30 07:46:45;;;;;;;2.30;1.27;;;;;;;11.94;82.26;97542.16;4975215;28;20429;-54
2021/09/30 07:49:12;;;;;;;2.40;1.50;;;;;;;11.98;82.09;97540.69;4975213;28;20421;-57
2021/09/30 07:51:38;;;;;;;3.83;1.50;;;;;;;12.03;81.91;97546.19;4975676;28;20508;-54
2021/09/30 07:54:05;;;;;;;4.30;1.50;;;;;;;12.07;81.12;97542.09;4974845;28;20788;-58
2021/09/30 07:56:32;;;;;;;2.37;1.50;;;;;;;12.17;80.54;97553.03;4975106;28;20437;-58
2021/09/30 07:58:58;;;;;;;4.07;1.20;;;;;;;12.04;79.86;97548.59;4975290;28;20446;-58
2021/09/30 08:01:24;;;;;;;7.30;1.70;;;;;;;12.24;79.79;97543.28;4975116;28;20409;-54
2021/09/30 08:03:50;;;;;;;3.80;1.40;;;;;;;12.32;78.29;97553.59;4974527;28;20529;-57
2021/09/30 08:06:16;;;;;;;2.27;1.07;;;;;;;12.32;77.19;97550.97;4974455;28;20277;-58
2021/09/30 08:08:42;;;;;;;2.90;1.17;;;;;;;12.42;77.02;97551.34;4974901;28;20464;-58
2021/09/30 08:11:07;;;;;;;1.23;0.93;;;;;;;12.34;75.93;97543.66;4974797;28;20425;-58
2021/09/30 08:13:33;;;;;;;2.47;1.10;;;;;;;12.45;74.59;97540.38;4974424;28;20181;-58
2021/09/30 08:16:00;;;;;;;1.53;0.80;;;;;;;12.51;73.58;97539.56;4974690;28;20194;-59
2021/09/30 08:18:26;;;;;;;1.97;1.03;;;;;;;12.39;73.67;97535.97;4974863;28;20169;-57
2021/09/30 08:20:51;;;;;;;1.90;1.00;;;;;;;12.57;73.67;97533.47;4974706;28;20884;-58
2021/09/30 08:23:17;;;;;;;2.03;1.10;;;;;;;12.56;73.99;97544.19;4974459;28;20186;-54
2021/09/30 08:25:43;;;;;;;1.57;1.00;;;;;;;12.61;70.66;97541.78;4974807;28;20206;-54
2021/09/30 08:28:09;;;;;;;2.73;0.60;;;;;;;12.59;70.32;97530.63;4974697;28;20202;-54
2021/09/30 08:30:35;;;;;;;3.40;0.90;;;;;;;12.75;70.67;97536.22;4974565;28;20468;-59
2021/09/30 08:33:00;;;;;;;2.37;1.00;;;;;;;12.95;69.51;97538.75;4974362;28;20892;-54
2021/09/30 08:35:26;;;;;;;1.30;1.00;;;;;;;12.86;69.23;97537.38;4974443;28;20448;-58
2021/09/30 08:37:52;;;;;;;5.67;0.87;;;;;;;12.81;68.87;97539.84;4974394;28;20257;-54
2021/09/30 08:40:18;;;;;;;1.83;1.10;;;;;;;12.93;69.47;97535.53;4974586;28;20408;-54
2021/09/30 08:42:47;;;;;;;3.03;0.87;;;;;;;12.94;67.40;97535.31;4974301;28;20233;-54
2021/09/30 08:45:13;;;;;;;2.10;0.77;;;;;;;13.04;67.17;97526.97;4974496;28;20197;-59
2021/09/30 08:47:39;;;;;;;2.20;1.00;;;;;;;13.31;67.64;97528.41;4974398;28;20808;-54
2021/09/30 08:50:05;;;;;;;1.50;0.80;;;;;;;13.08;67.70;97521.03;4973188;28;20178;-59
2021/09/30 08:52:30;;;;;;;2.73;1.00;;;;;;;13.29;67.81;97512.81;4974469;28;20409;-54
2021/09/30 08:54:56;;;;;;;2.30;1.23;;;;;;;13.40;66.92;97511.31;4973970;28;20213;-54
2021/09/30 08:57:21;;;;;;;2.77;1.10;;;;;;;13.59;69.38;97518.25;4974505;28;20553;-58
2021/09/30 09:00:09;;;;;;;1.13;0.90;;;;;;;13.81;67.56;97502.81;4974489;28;20175;-58
2021/09/30 09:02:41;;;;;;;2.97;0.70;;;;;;;13.57;64.49;97519.50;4974082;28;20536;-57
2021/09/30 09:05:07;;;;;;;5.33;0.90;;;;;;;13.78;63.39;97519.94;4974177;28;20433;-54
2021/09/30 09:07:33;;;;;;;1.67;0.93;;;;;;;13.80;62.64;97515.22;4974422;28;20793;-58
2021/09/30 09:10:01;;;;;;;1.27;0.77;;;;;;;14.05;63.69;97508.06;4974400;28;20428;-58
2021/09/30 09:12:31;;;;;;;1.33;0.40;;;;;;;14.06;61.24;97519.44;4974246;28;20418;-55
2021/09/30 09:14:58;;;;;;;3.17;0.87;;;;;;;14.06;60.66;97509.69;4973783;28;20433;-58
2021/09/30 09:17:23;;;;;;;5.27;0.80;;;;;;;14.16;62.65;97517.94;4974250;28;20484;-54
2021/09/30 09:19:55;;;;;;;2.07;0.70;;;;;;;14.33;59.17;97516.34;4976836;28;20885;-58
2021/09/30 09:22:31;;;;;;;0.63;0.60;;;;;;;14.42;60.69;97516.88;4978008;28;20189;-54
2021/09/30 09:25:11;;;;;;;2.33;0.67;;;;;;;14.63;60.06;97513.75;4977414;28;20944;-54
2021/09/30 09:27:47;;;;;;;2.73;0.70;;;;;;;14.40;58.36;97514.41;4977862;28;20500;-59
2021/09/30 09:30:38;;;;;;;1.33;1.00;;;;;;;14.62;60.28;97514.00;4977579;28;20984;-54
2021/09/30 09:33:14;;;;;;;1.90;0.77;;;;;;;14.73;60.01;97521.97;4976324;28;20409;-54
2021/09/30 09:35:52;;;;;;;0.70;0.60;;;;;;;14.32;58.59;97520.03;4977508;28;20437;-58
2021/09/30 09:38:20;;;;;;;1.60;0.80;;;;;;;14.11;58.01;97522.25;4977438;28;20425;-58
2021/09/30 09:40:46;;;;;;;2.87;1.00;;;;;;;14.39;58.87;97510.19;4977617;28;20422;-54
2021/09/30 09:43:36;;;;;;;1.37;0.77;;;;;;;14.48;60.78;97513.31;4977284;28;20501;-54
2021/09/30 09:46:03;;;;;;;2.53;0.70;;;;;;;14.64;59.10;97514.56;4977437;28;20715;-59
2021/09/30 09:48:32;;;;;;;2.67;1.00;;;;;;;14.82;59.74;97509.25;4977370;28;20548;-54
2021/09/30 09:50:57;;;;;;;3.13;0.70;;;;;;;14.98;57.94;97490.88;4977292;28;20422;-58
2021/09/30 09:53:28;;;;;;;2.37;0.80;;;;;;;14.97;56.66;97502.50;4976926;28;20417;-54
2021/09/30 09:56:08;;;;;;;2.77;1.07;;;;;;;14.70;56.21;97493.31;4977099;28;20226;-58
2021/09/30 09:58:46;;;;;;;7.70;0.77;;;;;;;14.67;55.77;97485.84;4977328;28;20415;-54
2021/09/30 10:01:12;;;;;;;2.80;1.00;;;;;;;14.86;56.18;97491.88;4975916;28;20410;-54
2021/09/30 10:03:38;;;;;;;0.97;0.57;;;;;;;15.00;55.80;97482.75;4976676;28;20413;-59
2021/09/30 10:06:05;;;;;;;1.33;0.93;;;;;;;15.22;55.08;97487.28;4977061;28;20194;-58
2021/09/30 10:08:32;;;;;;;1.73;0.50;;;;;;;15.36;53.82;97479.97;4977263;28;20828;-59
2021/09/30 10:10:59;;;;;;;3.40;0.70;;;;;;;15.15;51.16;97488.41;4977126;28;20414;-59
2021/09/30 10:13:27;;;;;;;2.67;0.93;;;;;;;15.36;52.68;97486.03;4976594;28;20901;-59
2021/09/30 10:15:54;;;;;;;2.37;0.70;;;;;;;15.17;51.80;97479.22;4976739;28;20472;-59
2021/09/30 10:18:24;;;;;;;1.73;0.80;;;;;;;15.37;54.68;97474.44;4976861;28;20406;-59
2021/09/30 10:20:50;;;;;;;0.60;0.60;;;;;;;15.42;51.34;97466.63;4976993;28;20508;-59
2021/09/30 10:23:22;;;;;;;0.70;0.30;;;;;;;15.31;48.75;97461.28;4976432;28;20410;-58
2021/09/30 10:25:49;;;;;;;2.10;0.60;;;;;;;15.41;49.28;97459.72;4976770;28;20433;-60
2021/09/30 10:28:15;;;;;;;3.10;0.70;;;;;;;15.45;49.06;97460.06;4976559;28;20845;-59
2021/09/30 10:30:53;;;;;;;2.40;0.60;;;;;;;15.29;50.15;97456.19;4976580;28;20445;-59
2021/09/30 10:33:22;;;;;;;1.43;0.57;;;;;;;15.29;50.87;97461.50;4976315;28;20468;-59
2021/09/30 10:35:53;;;;;;;1.60;0.57;;;;;;;15.32;49.10;97458.41;4976554;28;20437;-59
2021/09/30 10:38:31;;;;;;;0.70;0.70;;;;;;;15.04;48.26;97460.88;4976828;28;20904;-53
2021/09/30 10:41:02;;;;;;;0.50;0.40;;;;;;;14.91;49.08;97460.28;4976556;28;20480;-54
2021/09/30 10:43:31;;;;;;;1.83;0.70;;;;;;;14.86;48.51;97460.13;4976062;28;20406;-54
2021/09/30 10:45:57;;;;;;;0.70;0.50;;;;;;;14.93;50.14;97464.28;4976308;28;20939;-54
2021/09/30 10:48:23;;;;;;;1.23;0.60;;;;;;;15.22;51.28;97457.34;4976258;28;20450;-54
2021/09/30 10:50:51;;;;;;;2.27;1.47;;;;;;;15.22;51.04;97459.97;4976312;28;20417;-54
2021/09/30 10:53:16;;;;;;;4.40;1.20;;;;;;;15.20;50.95;97456.78;4976118;28;20182;-54
2021/09/30 10:55:42;;;;;;;1.80;0.77;;;;;;;15.31;53.36;97456.78;4976133;28;20425;-60
2021/09/30 10:58:24;;;;;;;2.40;0.67;;;;;;;15.48;52.77;97456.97;4976208;28;20203;-54
2021/09/30 11:00:56;;;;;;;0.80;0.80;;;;;;;15.40;51.23;97446.66;4975980;28;20185;-54
2021/09/30 11:03:23;;;;;;;0.90;0.67;;;;;;;15.64;50.81;97450.97;4975561;28;20421;-54
2021/09/30 11:06:07;;;;;;;1.10;0.70;;;;;;;15.82;50.14;97447.38;4975992;28;20444;-54
2021/09/30 11:08:36;;;;;;;1.67;0.60;;;;;;;16.03;50.63;97442.28;4975957;28;20531;-55
2021/09/30 11:11:01;;;;;;;1.27;0.67;;;;;;;16.27;52.80;97440.41;4975781;28;20413;-60
2021/09/30 11:13:30;;;;;;;1.27;0.60;;;;;;;16.34;49.96;97435.78;4975462;28;20929;-58
2021/09/30 11:16:20;;;;;;;2.53;0.67;;;;;;;16.23;48.24;97437.41;4975736;28;20664;-54
2021/09/30 11:18:57;;;;;;;1.37;0.73;;;;;;;16.14;48.03;97438.03;4975967;28;20414;-54
2021/09/30 11:21:28;;;;;;;3.50;1.00;;;;;;;16.07;49.09;97443.44;4975822;28;20417;-59
2021/09/30 11:23:56;;;;;;;1.10;0.53;;;;;;;16.27;49.02;97445.72;4975208;28;20901;-54
2021/09/30 11:26:22;;;;;;;2.87;0.70;;;;;;;16.40;48.10;97446.25;4975957;28;20437;-58
2021/09/30 11:28:48;;;;;;;2.00;0.63;;;;;;;16.58;48.13;97432.03;4974686;28;20483;-58
2021/09/30 11:31:27;;;;;;;2.73;0.90;;;;;;;16.70;47.42;97434.66;4975641;28;20893;-54
2021/09/30 11:33:56;;;;;;;1.77;0.70;;;;;;;16.44;45.50;97425.38;4973826;28;20344;-60
2021/09/30 11:36:48;;;;;;;0.90;0.53;;;;;;;16.43;46.63;97429.09;4973970;28;20463;-60
2021/09/30 11:39:14;;;;;;;0.80;0.63;;;;;;;16.39;46.02;97426.09;4974510;28;20777;-58
2021/09/30 11:41:42;;;;;;;1.80;0.70;;;;;;;16.46;45.99;97424.09;4973520;28;20421;-54
2021/09/30 11:44:13;;;;;;;3.73;0.83;;;;;;;16.73;49.38;97421.72;4974847;28;20170;-60
2021/09/30 11:46:38;;;;;;;1.27;0.70;;;;;;;16.79;45.33;97423.41;4974077;28;20446;-54
2021/09/30 11:49:06;;;;;;;2.70;0.80;;;;;;;16.61;43.99;97405.03;4975022;28;20991;-54
2021/09/30 11:51:45;;;;;;;1.60;0.90;;;;;;;16.52;45.19;97409.13;4975050;28;20787;-54
2021/09/30 11:54:15;;;;;;;2.47;0.67;;;;;;;16.61;46.01;97406.88;4974808;28;20408;-54
2021/09/30 11:56:52;;;;;;;1.10;0.60;;;;;;;16.65;44.69;97400.84;4975080;28;20449;-58
2021/09/30 11:59:21;;;;;;;1.07;0.67;;;;;;;16.94;46.79;97391.03;4975036;28;20440;-54
2021/09/30 12:01:49;;;;;;;4.33;0.80;;;;;;;17.03;45.58;97390.38;4974904;28;20906;-54
2021/09/30 12:04:53;;;;;;;1.80;0.80;;;;;;;17.30;45.71;97387.91;4974579;28;20413;-54
2021/09/30 12:07:19;;;;;;;1.80;0.70;;;;;;;17.12;43.32;97374.84;4974541;28;20804;-60
2021/09/30 12:09:46;;;;;;;0.40;0.40;;;;;;;17.17;42.43;97380.25;4973667;28;20472;-54
2021/09/30 12:12:12;;;;;;;0.93;0.60;;;;;;;17.33;41.68;97374.94;4974756;28;20908;-54
2021/09/30 12:14:42;;;;;;;3.90;1.07;;;;;;;17.53;42.70;97369.13;4957099;28;20418;-54
2021/09/30 12:17:12;;;;;;;1.00;0.60;;;;;;;17.67;42.10;97364.25;4974700;28;20186;-59
2021/09/30 12:19:40;;;;;;;1.90;0.67;;;;;;;17.74;44.32;97368.34;4974841;28;20421;-54
2021/09/30 12:22:18;;;;;;;1.00;0.67;;;;;;;17.90;43.59;97372.03;4974772;28;20432;-58
2021/09/30 12:24:51;;;;;;;2.73;0.60;;;;;;;18.08;42.42;97361.09;4974268;28;20405;-59
2021/09/30 12:27:18;;;;;;;1.67;0.63;;;;;;;18.07;44.39;97348.81;4974609;28;20460;-54
2021/09/30 12:29:46;;;;;;;2.50;0.93;;;;;;;17.97;44.14;97346.84;4974612;28;20409;-54
2021/09/30 12:32:15;;;;;;;1.87;0.70;;;;;;;17.75;44.69;97354.03;4974770;28;20417;-60
2021/09/30 12:34:53;;;;;;;1.53;0.80;;;;;;;17.99;45.16;97355.38;4974089;28;20410;-54
2021/09/30 12:37:44;;;;;;;2.27;1.30;;;;;;;18.23;46.25;97355.91;4974607;28;20468;-54
2021/09/30 12:40:14;;;;;;;1.27;0.57;;;;;;;18.22;45.97;97352.47;4974552;28;20409;-54
2021/09/30 12:43:14;;;;;;;2.60;0.80;;;;;;;18.37;43.43;97346.50;4974327;28;20436;-54
2021/09/30 12:45:59;;;;;;;1.53;0.60;;;;;;;18.62;41.57;97345.97;4974235;28;20450;-59
2021/09/30 12:48:29;;;;;;;3.30;0.80;;;;;;;18.85;42.35;97337.66;4974379;28;20523;-59
2021/09/30 12:51:04;;;;;;;3.00;0.90;;;;;;;18.97;40.82;97335.66;4974390;28;20500;-60
2021/09/30 12:53:31;;;;;;;3.13;0.60;;;;;;;18.98;41.43;97329.25;4973258;28;20515;-54
2021/09/30 12:56:10;;;;;;;2.10;0.80;;;;;;;19.05;41.98;97316.53;4978027;28;20520;-59
2021/09/30 12:58:39;;;;;;;1.47;0.80;;;;;;;19.09;40.83;97317.63;4976948;28;20492;-60
2021/09/30 13:01:30;;;;;;;1.50;0.70;;;;;;;19.17;40.11;97317.13;4978154;28;20464;-60
2021/09/30 13:04:05;;;;;;;1.80;0.83;;;;;;;19.27;40.50;97312.69;4977719;28;20480;-54
2021/09/30 13:06:30;;;;;;;2.30;0.70;;;;;;;19.06;39.62;97312.81;4978060;28;20431;-60
2021/09/30 13:08:56;;;;;;;3.00;0.90;;;;;;;19.14;39.77;97315.81;4978000;28;20817;-54
2021/09/30 13:11:22;;;;;;;0.70;0.60;;;;;;;19.10;40.90;97306.69;4978073;28;20534;-54
2021/09/30 13:14:22;;;;;;;2.80;0.70;;;;;;;19.00;39.46;97308.50;4977468;28;20174;-59
2021/09/30 13:16:54;;;;;;;1.10;0.70;;;;;;;19.04;38.67;97309.59;4976678;28;20441;-54
2021/09/30 13:19:38;;;;;;;1.67;0.73;;;;;;;19.17;40.09;97301.94;4977765;28;20795;-59
2021/09/30 13:22:05;;;;;;;2.60;1.13;;;;;;;19.23;40.90;97300.13;4977742;28;20436;-54
2021/09/30 13:24:38;;;;;;;1.30;0.70;;;;;;;19.25;40.22;97295.34;4977138;28;20789;-55
2021/09/30 13:27:06;;;;;;;3.07;0.87;;;;;;;19.27;41.36;97296.69;4977461;28;20499;-59
2021/09/30 13:29:32;;;;;;;1.63;0.70;;;;;;;19.39;39.52;97291.19;4977766;28;20472;-59
2021/09/30 13:31:58;;;;;;;1.00;0.60;;;;;;;19.42;40.07;97288.03;4977665;28;20410;-59
2021/09/30 13:34:23;;;;;;;1.47;0.73;;;;;;;19.46;41.60;97273.91;4977199;28;20178;-53
2021/09/30 13:36:49;;;;;;;0.97;0.63;;;;;;;19.52;41.40;97273.91;4977297;28;20600;-54
2021/09/30 13:39:15;;;;;;;3.37;0.80;;;;;;;19.68;41.80;97280.94;4977564;28;20216;-58
2021/09/30 13:41:41;;;;;;;1.40;0.70;;;;;;;19.76;40.14;97269.78;4977306;28;20826;-54
2021/09/30 13:44:07;;;;;;;1.17;0.70;;;;;;;19.98;38.31;97271.19;4976956;28;20417;-54
2021/09/30 13:46:33;;;;;;;2.13;0.70;;;;;;;20.09;38.57;97272.03;4977634;28;20429;-61
2021/09/30 13:48:59;;;;;;;2.10;0.70;;;;;;;19.92;38.13;97269.56;4977174;28;20206;-55
2021/09/30 13:51:26;;;;;;;0.93;0.50;;;;;;;19.96;40.88;97259.97;4977275;28;20972;-59
2021/09/30 13:53:51;;;;;;;1.10;0.60;;;;;;;20.02;41.37;97268.81;4976611;28;20181;-60
2021/09/30 13:56:17;;;;;;;1.93;0.70;;;;;;;19.77;41.54;97261.50;4976980;28;20430;-55
2021/09/30 13:58:42;;;;;;;1.07;0.80;;;;;;;19.79;43.46;97270.03;4977186;28;20201;-60
2021/09/30 14:01:07;;;;;;;2.37;1.20;;;;;;;19.72;44.66;97261.50;4977079;28;20178;-54
2021/09/30 14:03:34;;;;;;;1.07;0.83;;;;;;;19.88;42.42;97257.00;4976533;28;20642;-59
2021/09/30 14:06:00;;;;;;;0.70;0.70;;;;;;;19.81;40.19;97259.91;4976519;28;20205;-54
2021/09/30 14:08:28;;;;;;;0.80;0.80;;;;;;;19.71;43.19;97253.75;4976872;28;20481;-54
2021/09/30 14:10:54;;;;;;;2.93;0.70;;;;;;;19.76;43.62;97251.91;4976692;28;20414;-59
2021/09/30 14:13:19;;;;;;;2.70;0.87;;;;;;;19.90;41.89;97252.19;4976512;28;20412;-60
2021/09/30 14:15:45;;;;;;;1.13;0.67;;;;;;;20.05;43.62;97247.72;4976794;28;20329;-54
2021/09/30 14:18:11;;;;;;;1.77;0.67;;;;;;;20.26;41.86;97249.38;4977031;28;20272;-54
2021/09/30 14:20:37;;;;;;;5.17;0.93;;;;;;;20.43;40.35;97249.97;4976640;28;20284;-54
2021/09/30 14:23:04;;;;;;;2.73;0.93;;;;;;;20.51;41.87;97243.25;4976275;28;20174;-59